sensor_id;sensor_type;location;lat;lon;timestamp;temperature;humidity
2621;DHT22;1320;48.128;11.592;2023-06-10T00:01:48;19.70;95.00
2621;DHT22;1320;48.128;11.592;2023-06-10T00:04:14;19.70;95.10
2621;DHT22;1320;48.128;11.592;2023-06-10T00:06:40;19.60;95.10
2621;DHT22;1320;48.128;11.592;2023-06-10T00:09:06;19.60;95.20
2621;DHT22;1320;48.128;11.592;2023-06-10T00:11:35;19.60;95.30
2621;DHT22;1320;48.128;11.592;2023-06-10T00:14:01;19.50;95.40
2621;DHT22;1320;48.128;11.592;2023-06-10T00:16:28;19.50;95.40
2621;DHT22;1320;48.128;11.592;2023-06-10T00:18:54;19.50;95.50
2621;DHT22;1320;48.128;11.592;2023-06-10T00:21:31;19.40;95.60
2621;DHT22;1320;48.128;11.592;2023-06-10T00:24:07;19.40;95.50
2621;DHT22;1320;48.128;11.592;2023-06-10T00:26:40;19.40;95.60
2621;DHT22;1320;48.128;11.592;2023-06-10T00:29:06;19.40;95.70
2621;DHT22;1320;48.128;11.592;2023-06-10T00:31:34;19.30;95.60
2621;DHT22;1320;48.128;11.592;2023-06-10T00:34:00;19.30;95.70
2621;DHT22;1320;48.128;11.592;2023-06-10T00:36:26;19.30;95.80
2621;DHT22;1320;48.128;11.592;2023-06-10T00:38:52;19.20;95.80
2621;DHT22;1320;48.128;11.592;2023-06-10T00:41:18;19.20;95.90
2621;DHT22;1320;48.128;11.592;2023-06-10T00:43:43;19.10;95.90
2621;DHT22;1320;48.128;11.592;2023-06-10T00:46:10;19.10;96.00
2621;DHT22;1320;48.128;11.592;2023-06-10T00:48:37;19.00;96.00
2621;DHT22;1320;48.128;11.592;2023-06-10T00:51:05;19.00;96.10
2621;DHT22;1320;48.128;11.592;2023-06-10T00:53:31;19.00;96.20
2621;DHT22;1320;48.128;11.592;2023-06-10T00:55:58;18.90;96.40
2621;DHT22;1320;48.128;11.592;2023-06-10T00:58:24;18.90;96.40
2621;DHT22;1320;48.128;11.592;2023-06-10T01:00:51;18.90;96.50
2621;DHT22;1320;48.128;11.592;2023-06-10T01:03:17;18.80;96.50
2621;DHT22;1320;48.128;11.592;2023-06-10T01:05:43;18.80;96.60
2621;DHT22;1320;48.128;11.592;2023-06-10T01:08:28;18.80;96.70
2621;DHT22;1320;48.128;11.592;2023-06-10T01:11:00;18.70;96.80
2621;DHT22;1320;48.128;11.592;2023-06-10T01:13:26;18.70;97.00
2621;DHT22;1320;48.128;11.592;2023-06-10T01:15:57;18.60;97.00
2621;DHT22;1320;48.128;11.592;2023-06-10T01:18:24;18.60;97.20
2621;DHT22;1320;48.128;11.592;2023-06-10T01:20:56;18.60;97.30
2621;DHT22;1320;48.128;11.592;2023-06-10T01:23:21;18.60;97.40
2621;DHT22;1320;48.128;11.592;2023-06-10T01:25:59;18.60;97.50
2621;DHT22;1320;48.128;11.592;2023-06-10T01:28:57;18.60;97.60
2621;DHT22;1320;48.128;11.592;2023-06-10T01:34:00;18.50;97.80
2621;DHT22;1320;48.128;11.592;2023-06-10T01:36:28;18.50;97.90
2621;DHT22;1320;48.128;11.592;2023-06-10T01:38:55;18.50;98.00
2621;DHT22;1320;48.128;11.592;2023-06-10T01:41:22;18.40;98.00
2621;DHT22;1320;48.128;11.592;2023-06-10T01:43:48;18.40;98.10
2621;DHT22;1320;48.128;11.592;2023-06-10T01:46:15;18.40;98.20
2621;DHT22;1320;48.128;11.592;2023-06-10T01:48:44;18.40;98.30
2621;DHT22;1320;48.128;11.592;2023-06-10T01:51:10;18.40;98.40
2621;DHT22;1320;48.128;11.592;2023-06-10T01:53:35;18.30;98.50
2621;DHT22;1320;48.128;11.592;2023-06-10T01:56:01;18.30;98.60
2621;DHT22;1320;48.128;11.592;2023-06-10T01:58:27;18.30;98.80
2621;DHT22;1320;48.128;11.592;2023-06-10T02:00:52;18.30;98.90
2621;DHT22;1320;48.128;11.592;2023-06-10T02:03:18;18.30;98.90
2621;DHT22;1320;48.128;11.592;2023-06-10T02:05:44;18.30;99.10
2621;DHT22;1320;48.128;11.592;2023-06-10T02:08:09;18.20;99.10
2621;DHT22;1320;48.128;11.592;2023-06-10T02:10:35;18.20;99.10
2621;DHT22;1320;48.128;11.592;2023-06-10T02:13:01;18.20;99.20
2621;DHT22;1320;48.128;11.592;2023-06-10T02:15:26;18.20;99.40
2621;DHT22;1320;48.128;11.592;2023-06-10T02:17:52;18.10;99.40
2621;DHT22;1320;48.128;11.592;2023-06-10T02:20:18;18.10;99.50
2621;DHT22;1320;48.128;11.592;2023-06-10T02:22:44;18.10;99.60
2621;DHT22;1320;48.128;11.592;2023-06-10T02:25:10;18.10;99.70
2621;DHT22;1320;48.128;11.592;2023-06-10T02:27:35;18.10;99.70
2621;DHT22;1320;48.128;11.592;2023-06-10T02:30:01;18.10;99.80
2621;DHT22;1320;48.128;11.592;2023-06-10T02:32:27;18.10;99.80
2621;DHT22;1320;48.128;11.592;2023-06-10T02:34:53;18.10;99.90
2621;DHT22;1320;48.128;11.592;2023-06-10T02:37:19;18.10;99.90
2621;DHT22;1320;48.128;11.592;2023-06-10T02:39:48;18.10;99.90
2621;DHT22;1320;48.128;11.592;2023-06-10T02:42:14;18.00;99.90
2621;DHT22;1320;48.128;11.592;2023-06-10T02:44:40;18.10;99.90
2621;DHT22;1320;48.128;11.592;2023-06-10T02:47:06;18.00;99.90
2621;DHT22;1320;48.128;11.592;2023-06-10T02:49:31;18.00;99.90
2621;DHT22;1320;48.128;11.592;2023-06-10T02:51:57;18.00;99.90
2621;DHT22;1320;48.128;11.592;2023-06-10T02:54:26;18.00;99.90
2621;DHT22;1320;48.128;11.592;2023-06-10T02:56:52;18.00;99.90
2621;DHT22;1320;48.128;11.592;2023-06-10T02:59:18;18.00;99.90
2621;DHT22;1320;48.128;11.592;2023-06-10T03:01:44;18.00;99.90
2621;DHT22;1320;48.128;11.592;2023-06-10T03:04:10;18.00;99.90
2621;DHT22;1320;48.128;11.592;2023-06-10T03:06:39;18.00;99.90
2621;DHT22;1320;48.128;11.592;2023-06-10T03:09:06;18.00;99.90
2621;DHT22;1320;48.128;11.592;2023-06-10T03:11:35;17.90;99.90
2621;DHT22;1320;48.128;11.592;2023-06-10T03:14:01;17.90;99.90
2621;DHT22;1320;48.128;11.592;2023-06-10T03:16:27;17.90;99.90
2621;DHT22;1320;48.128;11.592;2023-06-10T03:18:53;17.90;99.90
2621;DHT22;1320;48.128;11.592;2023-06-10T03:21:19;17.90;99.90
2621;DHT22;1320;48.128;11.592;2023-06-10T03:23:45;17.90;99.90
2621;DHT22;1320;48.128;11.592;2023-06-10T03:26:11;17.90;99.90
2621;DHT22;1320;48.128;11.592;2023-06-10T03:28:41;17.90;99.90
2621;DHT22;1320;48.128;11.592;2023-06-10T03:31:07;17.90;99.90
2621;DHT22;1320;48.128;11.592;2023-06-10T03:33:33;17.90;99.90
2621;DHT22;1320;48.128;11.592;2023-06-10T03:35:59;17.80;99.90
2621;DHT22;1320;48.128;11.592;2023-06-10T03:38:27;17.80;99.90
2621;DHT22;1320;48.128;11.592;2023-06-10T03:40:52;17.80;99.90
2621;DHT22;1320;48.128;11.592;2023-06-10T03:43:18;17.70;99.90
2621;DHT22;1320;48.128;11.592;2023-06-10T03:45:44;17.70;99.90
2621;DHT22;1320;48.128;11.592;2023-06-10T03:48:10;17.70;99.90
2621;DHT22;1320;48.128;11.592;2023-06-10T03:50:36;17.70;99.90
2621;DHT22;1320;48.128;11.592;2023-06-10T03:53:02;17.60;99.90
2621;DHT22;1320;48.128;11.592;2023-06-10T03:55:28;17.60;99.90
2621;DHT22;1320;48.128;11.592;2023-06-10T03:57:53;17.60;99.90
2621;DHT22;1320;48.128;11.592;2023-06-10T04:00:19;17.60;99.90
2621;DHT22;1320;48.128;11.592;2023-06-10T04:02:47;17.60;99.90
2621;DHT22;1320;48.128;11.592;2023-06-10T04:05:19;17.60;99.90
2621;DHT22;1320;48.128;11.592;2023-06-10T04:07:47;17.60;99.90
2621;DHT22;1320;48.128;11.592;2023-06-10T04:10:14;17.60;99.90
2621;DHT22;1320;48.128;11.592;2023-06-10T04:12:39;17.60;99.90
2621;DHT22;1320;48.128;11.592;2023-06-10T04:15:06;17.60;99.90
2621;DHT22;1320;48.128;11.592;2023-06-10T04:17:32;17.60;99.90
2621;DHT22;1320;48.128;11.592;2023-06-10T04:19:58;17.60;99.90
2621;DHT22;1320;48.128;11.592;2023-06-10T04:22:24;17.70;99.90
2621;DHT22;1320;48.128;11.592;2023-06-10T04:24:50;17.70;99.90
2621;DHT22;1320;48.128;11.592;2023-06-10T04:27:16;17.70;99.90
2621;DHT22;1320;48.128;11.592;2023-06-10T04:29:41;17.70;99.90
2621;DHT22;1320;48.128;11.592;2023-06-10T04:32:07;17.80;99.90
2621;DHT22;1320;48.128;11.592;2023-06-10T04:34:33;17.80;99.90
2621;DHT22;1320;48.128;11.592;2023-06-10T04:36:59;17.80;99.90
2621;DHT22;1320;48.128;11.592;2023-06-10T04:39:25;17.90;99.90
2621;DHT22;1320;48.128;11.592;2023-06-10T04:41:51;17.90;99.90
2621;DHT22;1320;48.128;11.592;2023-06-10T04:44:20;17.90;99.90
2621;DHT22;1320;48.128;11.592;2023-06-10T04:46:46;17.90;99.90
2621;DHT22;1320;48.128;11.592;2023-06-10T04:49:13;18.00;99.90
2621;DHT22;1320;48.128;11.592;2023-06-10T04:51:41;18.00;99.90
2621;DHT22;1320;48.128;11.592;2023-06-10T04:54:07;18.10;99.90
2621;DHT22;1320;48.128;11.592;2023-06-10T04:56:33;18.10;99.90
2621;DHT22;1320;48.128;11.592;2023-06-10T04:58:59;18.10;99.90
2621;DHT22;1320;48.128;11.592;2023-06-10T05:01:25;18.20;99.90
2621;DHT22;1320;48.128;11.592;2023-06-10T05:03:51;18.20;99.90
2621;DHT22;1320;48.128;11.592;2023-06-10T05:06:17;18.30;99.90
2621;DHT22;1320;48.128;11.592;2023-06-10T05:08:43;18.30;99.90
2621;DHT22;1320;48.128;11.592;2023-06-10T05:11:08;18.40;99.90
2621;DHT22;1320;48.128;11.592;2023-06-10T05:13:34;18.40;99.90
2621;DHT22;1320;48.128;11.592;2023-06-10T05:16:00;18.40;99.90
2621;DHT22;1320;48.128;11.592;2023-06-10T05:18:26;18.50;99.90
2621;DHT22;1320;48.128;11.592;2023-06-10T05:20:52;18.50;99.90
2621;DHT22;1320;48.128;11.592;2023-06-10T05:23:19;18.50;99.90
2621;DHT22;1320;48.128;11.592;2023-06-10T05:25:45;18.60;99.90
2621;DHT22;1320;48.128;11.592;2023-06-10T05:28:11;18.60;99.90
2621;DHT22;1320;48.128;11.592;2023-06-10T05:30:37;18.70;99.90
2621;DHT22;1320;48.128;11.592;2023-06-10T05:33:03;18.70;99.90
2621;DHT22;1320;48.128;11.592;2023-06-10T05:35:29;18.80;99.90
2621;DHT22;1320;48.128;11.592;2023-06-10T05:37:55;18.90;99.90
2621;DHT22;1320;48.128;11.592;2023-06-10T05:40:20;19.00;99.90
2621;DHT22;1320;48.128;11.592;2023-06-10T05:42:46;19.10;99.90
2621;DHT22;1320;48.128;11.592;2023-06-10T05:45:12;19.10;99.90
2621;DHT22;1320;48.128;11.592;2023-06-10T05:47:38;19.20;99.90
2621;DHT22;1320;48.128;11.592;2023-06-10T05:50:04;19.30;99.90
2621;DHT22;1320;48.128;11.592;2023-06-10T05:52:33;19.40;99.90
2621;DHT22;1320;48.128;11.592;2023-06-10T05:54:59;19.50;99.90
2621;DHT22;1320;48.128;11.592;2023-06-10T05:57:25;19.60;99.90
2621;DHT22;1320;48.128;11.592;2023-06-10T05:59:51;19.60;99.90
2621;DHT22;1320;48.128;11.592;2023-06-10T06:02:19;19.70;99.90
2621;DHT22;1320;48.128;11.592;2023-06-10T06:04:45;19.80;99.90
2621;DHT22;1320;48.128;11.592;2023-06-10T06:07:11;19.80;99.90
2621;DHT22;1320;48.128;11.592;2023-06-10T06:09:36;19.90;99.90
2621;DHT22;1320;48.128;11.592;2023-06-10T06:12:02;20.00;99.90
2621;DHT22;1320;48.128;11.592;2023-06-10T06:14:31;20.10;99.90
2621;DHT22;1320;48.128;11.592;2023-06-10T06:16:58;20.20;99.90
2621;DHT22;1320;48.128;11.592;2023-06-10T06:19:23;20.30;99.90
2621;DHT22;1320;48.128;11.592;2023-06-10T06:21:50;20.40;99.90
2621;DHT22;1320;48.128;11.592;2023-06-10T06:24:16;20.40;99.90
2621;DHT22;1320;48.128;11.592;2023-06-10T06:26:42;20.60;99.90
2621;DHT22;1320;48.128;11.592;2023-06-10T06:29:07;20.70;99.90
2621;DHT22;1320;48.128;11.592;2023-06-10T06:31:33;20.80;99.90
2621;DHT22;1320;48.128;11.592;2023-06-10T06:33:59;20.90;99.90
2621;DHT22;1320;48.128;11.592;2023-06-10T06:36:25;21.00;99.90
2621;DHT22;1320;48.128;11.592;2023-06-10T06:38:50;21.00;99.90
2621;DHT22;1320;48.128;11.592;2023-06-10T06:41:16;21.00;99.90
2621;DHT22;1320;48.128;11.592;2023-06-10T06:43:42;21.00;99.90
2621;DHT22;1320;48.128;11.592;2023-06-10T06:46:08;20.90;99.90
2621;DHT22;1320;48.128;11.592;2023-06-10T06:48:34;20.90;99.90
2621;DHT22;1320;48.128;11.592;2023-06-10T06:50:59;20.90;99.90
2621;DHT22;1320;48.128;11.592;2023-06-10T06:53:25;20.90;99.90
2621;DHT22;1320;48.128;11.592;2023-06-10T06:55:51;20.90;99.90
2621;DHT22;1320;48.128;11.592;2023-06-10T06:58:16;20.90;99.90
2621;DHT22;1320;48.128;11.592;2023-06-10T07:00:42;21.10;99.90
2621;DHT22;1320;48.128;11.592;2023-06-10T07:03:08;21.10;99.90
2621;DHT22;1320;48.128;11.592;2023-06-10T07:05:33;21.20;99.90
2621;DHT22;1320;48.128;11.592;2023-06-10T07:07:59;21.30;99.90
2621;DHT22;1320;48.128;11.592;2023-06-10T07:10:25;21.30;99.90
2621;DHT22;1320;48.128;11.592;2023-06-10T07:12:51;21.30;99.90
2621;DHT22;1320;48.128;11.592;2023-06-10T07:15:17;21.40;99.90
2621;DHT22;1320;48.128;11.592;2023-06-10T07:17:43;21.40;99.90
2621;DHT22;1320;48.128;11.592;2023-06-10T07:20:09;21.50;99.90
2621;DHT22;1320;48.128;11.592;2023-06-10T07:22:35;21.70;99.90
2621;DHT22;1320;48.128;11.592;2023-06-10T07:25:01;21.80;99.90
2621;DHT22;1320;48.128;11.592;2023-06-10T07:27:27;21.80;99.90
2621;DHT22;1320;48.128;11.592;2023-06-10T07:29:52;21.90;99.90
2621;DHT22;1320;48.128;11.592;2023-06-10T07:32:19;22.00;99.90
2621;DHT22;1320;48.128;11.592;2023-06-10T07:34:47;22.10;99.90
2621;DHT22;1320;48.128;11.592;2023-06-10T07:39:39;22.40;99.90
2621;DHT22;1320;48.128;11.592;2023-06-10T07:42:05;22.50;99.90
2621;DHT22;1320;48.128;11.592;2023-06-10T07:44:31;22.60;99.90
2621;DHT22;1320;48.128;11.592;2023-06-10T07:46:57;22.60;99.70
2621;DHT22;1320;48.128;11.592;2023-06-10T07:49:23;22.70;99.60
2621;DHT22;1320;48.128;11.592;2023-06-10T07:51:50;22.80;99.50
2621;DHT22;1320;48.128;11.592;2023-06-10T07:54:16;22.90;99.50
2621;DHT22;1320;48.128;11.592;2023-06-10T07:56:41;23.00;99.00
2621;DHT22;1320;48.128;11.592;2023-06-10T07:59:07;23.10;98.80
2621;DHT22;1320;48.128;11.592;2023-06-10T08:01:33;23.20;99.00
2621;DHT22;1320;48.128;11.592;2023-06-10T08:03:58;23.30;98.60
2621;DHT22;1320;48.128;11.592;2023-06-10T08:06:24;23.30;98.50
2621;DHT22;1320;48.128;11.592;2023-06-10T08:08:50;23.50;98.50
2621;DHT22;1320;48.128;11.592;2023-06-10T08:11:15;23.50;98.00
2621;DHT22;1320;48.128;11.592;2023-06-10T08:13:41;23.60;98.00
2621;DHT22;1320;48.128;11.592;2023-06-10T08:16:07;23.70;98.10
2621;DHT22;1320;48.128;11.592;2023-06-10T08:18:32;23.90;98.20
2621;DHT22;1320;48.128;11.592;2023-06-10T08:20:59;24.10;97.90
2621;DHT22;1320;48.128;11.592;2023-06-10T08:23:25;24.50;97.80
2621;DHT22;1320;48.128;11.592;2023-06-10T08:25:50;25.00;96.90
2621;DHT22;1320;48.128;11.592;2023-06-10T08:28:16;25.50;96.00
2621;DHT22;1320;48.128;11.592;2023-06-10T08:30:42;26.10;95.30
2621;DHT22;1320;48.128;11.592;2023-06-10T08:33:08;26.50;94.50
2621;DHT22;1320;48.128;11.592;2023-06-10T08:35:33;26.90;93.30
2621;DHT22;1320;48.128;11.592;2023-06-10T08:37:59;27.10;93.30
2621;DHT22;1320;48.128;11.592;2023-06-10T08:40:25;27.40;92.70
2621;DHT22;1320;48.128;11.592;2023-06-10T08:45:23;28.00;92.30
2621;DHT22;1320;48.128;11.592;2023-06-10T08:47:50;28.00;91.90
2621;DHT22;1320;48.128;11.592;2023-06-10T08:50:19;28.10;91.40
2621;DHT22;1320;48.128;11.592;2023-06-10T08:52:44;28.00;91.20
2621;DHT22;1320;48.128;11.592;2023-06-10T08:55:18;27.80;91.30
2621;DHT22;1320;48.128;11.592;2023-06-10T08:57:51;27.50;91.30
2621;DHT22;1320;48.128;11.592;2023-06-10T09:00:18;27.10;91.90
2621;DHT22;1320;48.128;11.592;2023-06-10T09:02:44;27.20;92.00
2621;DHT22;1320;48.128;11.592;2023-06-10T09:05:10;27.50;91.80
2621;DHT22;1320;48.128;11.592;2023-06-10T09:07:36;27.90;91.80
2621;DHT22;1320;48.128;11.592;2023-06-10T09:10:03;28.20;91.50
2621;DHT22;1320;48.128;11.592;2023-06-10T09:12:32;28.50;90.70
2621;DHT22;1320;48.128;11.592;2023-06-10T09:14:59;28.70;90.20
2621;DHT22;1320;48.128;11.592;2023-06-10T09:17:26;28.80;89.60
2621;DHT22;1320;48.128;11.592;2023-06-10T09:19:52;28.80;89.70
2621;DHT22;1320;48.128;11.592;2023-06-10T09:22:21;28.70;90.20
2621;DHT22;1320;48.128;11.592;2023-06-10T09:24:47;28.70;89.40
2621;DHT22;1320;48.128;11.592;2023-06-10T09:27:13;28.80;89.90
2621;DHT22;1320;48.128;11.592;2023-06-10T09:29:51;28.80;89.50
2621;DHT22;1320;48.128;11.592;2023-06-10T09:32:18;28.80;88.60
2621;DHT22;1320;48.128;11.592;2023-06-10T09:34:44;28.70;88.50
2621;DHT22;1320;48.128;11.592;2023-06-10T09:37:10;28.80;88.80
2621;DHT22;1320;48.128;11.592;2023-06-10T09:39:38;28.90;88.00
2621;DHT22;1320;48.128;11.592;2023-06-10T09:42:24;29.10;87.20
2621;DHT22;1320;48.128;11.592;2023-06-10T09:44:52;29.40;87.60
2621;DHT22;1320;48.128;11.592;2023-06-10T09:47:22;29.40;86.40
2621;DHT22;1320;48.128;11.592;2023-06-10T09:49:49;29.20;85.80
2621;DHT22;1320;48.128;11.592;2023-06-10T09:52:21;28.80;85.90
2621;DHT22;1320;48.128;11.592;2023-06-10T09:54:47;28.40;86.90
2621;DHT22;1320;48.128;11.592;2023-06-10T09:57:13;28.10;87.60
2621;DHT22;1320;48.128;11.592;2023-06-10T09:59:40;28.00;87.80
2621;DHT22;1320;48.128;11.592;2023-06-10T10:02:06;28.30;88.20
2621;DHT22;1320;48.128;11.592;2023-06-10T10:04:35;28.60;87.00
2621;DHT22;1320;48.128;11.592;2023-06-10T10:07:01;29.10;85.70
2621;DHT22;1320;48.128;11.592;2023-06-10T10:09:27;29.50;84.40
2621;DHT22;1320;48.128;11.592;2023-06-10T10:11:54;29.60;83.20
2621;DHT22;1320;48.128;11.592;2023-06-10T10:14:21;29.40;83.50
2621;DHT22;1320;48.128;11.592;2023-06-10T10:16:49;29.10;83.90
2621;DHT22;1320;48.128;11.592;2023-06-10T10:19:28;28.70;83.80
2621;DHT22;1320;48.128;11.592;2023-06-10T10:22:01;28.40;84.10
2621;DHT22;1320;48.128;11.592;2023-06-10T10:24:33;28.00;85.20
2621;DHT22;1320;48.128;11.592;2023-06-10T10:27:01;27.70;86.50
2621;DHT22;1320;48.128;11.592;2023-06-10T10:29:38;27.50;86.30
2621;DHT22;1320;48.128;11.592;2023-06-10T10:32:08;27.30;86.80
2621;DHT22;1320;48.128;11.592;2023-06-10T10:34:48;27.10;88.10
2621;DHT22;1320;48.128;11.592;2023-06-10T10:37:14;26.80;88.00
2621;DHT22;1320;48.128;11.592;2023-06-10T10:39:41;26.70;88.00
2621;DHT22;1320;48.128;11.592;2023-06-10T10:42:08;26.60;88.40
2621;DHT22;1320;48.128;11.592;2023-06-10T10:44:37;26.40;88.60
2621;DHT22;1320;48.128;11.592;2023-06-10T10:47:04;26.30;88.70
2621;DHT22;1320;48.128;11.592;2023-06-10T10:49:35;26.30;88.90
2621;DHT22;1320;48.128;11.592;2023-06-10T10:52:02;26.30;89.20
2621;DHT22;1320;48.128;11.592;2023-06-10T10:54:34;26.50;89.10
2621;DHT22;1320;48.128;11.592;2023-06-10T10:57:16;26.70;89.20
2621;DHT22;1320;48.128;11.592;2023-06-10T11:02:17;27.20;88.30
2621;DHT22;1320;48.128;11.592;2023-06-10T11:04:47;27.30;88.40
2621;DHT22;1320;48.128;11.592;2023-06-10T11:07:13;27.40;88.20
2621;DHT22;1320;48.128;11.592;2023-06-10T11:10:10;27.50;87.80
2621;DHT22;1320;48.128;11.592;2023-06-10T11:15:19;27.90;85.80
2621;DHT22;1320;48.128;11.592;2023-06-10T11:29:04;28.70;83.90
2621;DHT22;1320;48.128;11.592;2023-06-10T11:31:38;28.60;83.50
2621;DHT22;1320;48.128;11.592;2023-06-10T11:34:06;28.50;83.00
2621;DHT22;1320;48.128;11.592;2023-06-10T11:36:36;28.30;82.30
2621;DHT22;1320;48.128;11.592;2023-06-10T11:39:04;28.10;82.50
2621;DHT22;1320;48.128;11.592;2023-06-10T11:41:31;28.00;83.10
2621;DHT22;1320;48.128;11.592;2023-06-10T11:44:02;27.90;83.50
2621;DHT22;1320;48.128;11.592;2023-06-10T11:46:27;27.80;84.40
2621;DHT22;1320;48.128;11.592;2023-06-10T11:48:58;27.80;83.90
2621;DHT22;1320;48.128;11.592;2023-06-10T11:51:34;27.90;82.90
2621;DHT22;1320;48.128;11.592;2023-06-10T11:54:01;27.90;82.20
2621;DHT22;1320;48.128;11.592;2023-06-10T11:56:28;28.00;81.80
2621;DHT22;1320;48.128;11.592;2023-06-10T11:58:56;28.00;82.00
2621;DHT22;1320;48.128;11.592;2023-06-10T12:01:24;28.10;81.30
2621;DHT22;1320;48.128;11.592;2023-06-10T12:03:59;28.20;80.70
2621;DHT22;1320;48.128;11.592;2023-06-10T12:06:25;28.40;81.10
2621;DHT22;1320;48.128;11.592;2023-06-10T12:08:51;28.70;80.30
2621;DHT22;1320;48.128;11.592;2023-06-10T12:11:17;29.00;80.20
2621;DHT22;1320;48.128;11.592;2023-06-10T12:13:47;29.20;79.20
2621;DHT22;1320;48.128;11.592;2023-06-10T12:16:16;29.50;79.00
2621;DHT22;1320;48.128;11.592;2023-06-10T12:18:46;29.80;78.40
2621;DHT22;1320;48.128;11.592;2023-06-10T12:21:31;30.00;78.00
2621;DHT22;1320;48.128;11.592;2023-06-10T12:24:07;30.10;77.60
2621;DHT22;1320;48.128;11.592;2023-06-10T12:26:43;30.20;76.80
2621;DHT22;1320;48.128;11.592;2023-06-10T12:29:17;30.30;74.40
2621;DHT22;1320;48.128;11.592;2023-06-10T12:32:03;30.50;76.20
2621;DHT22;1320;48.128;11.592;2023-06-10T12:34:39;30.60;76.30
2621;DHT22;1320;48.128;11.592;2023-06-10T12:37:10;30.70;75.30
2621;DHT22;1320;48.128;11.592;2023-06-10T12:39:39;30.80;74.40
2621;DHT22;1320;48.128;11.592;2023-06-10T12:42:05;30.80;74.60
2621;DHT22;1320;48.128;11.592;2023-06-10T12:44:38;30.80;73.40
2621;DHT22;1320;48.128;11.592;2023-06-10T12:47:08;30.90;74.60
2621;DHT22;1320;48.128;11.592;2023-06-10T12:49:35;30.90;74.30
2621;DHT22;1320;48.128;11.592;2023-06-10T12:52:01;31.00;72.70
2621;DHT22;1320;48.128;11.592;2023-06-10T12:54:27;31.20;71.90
2621;DHT22;1320;48.128;11.592;2023-06-10T12:56:52;31.30;72.30
2621;DHT22;1320;48.128;11.592;2023-06-10T12:59:18;31.30;71.70
2621;DHT22;1320;48.128;11.592;2023-06-10T13:01:49;31.40;74.10
2621;DHT22;1320;48.128;11.592;2023-06-10T13:04:16;31.30;76.30
2621;DHT22;1320;48.128;11.592;2023-06-10T13:06:42;31.00;77.10
2621;DHT22;1320;48.128;11.592;2023-06-10T13:09:07;30.50;78.20
2621;DHT22;1320;48.128;11.592;2023-06-10T13:11:34;30.10;79.70
2621;DHT22;1320;48.128;11.592;2023-06-10T13:14:01;29.90;80.50
2621;DHT22;1320;48.128;11.592;2023-06-10T13:16:28;29.80;81.10
2621;DHT22;1320;48.128;11.592;2023-06-10T13:18:54;29.80;81.50
2621;DHT22;1320;48.128;11.592;2023-06-10T13:21:20;29.80;81.70
2621;DHT22;1320;48.128;11.592;2023-06-10T13:23:46;29.90;82.50
2621;DHT22;1320;48.128;11.592;2023-06-10T13:26:14;29.80;81.50
2621;DHT22;1320;48.128;11.592;2023-06-10T13:28:40;29.60;82.60
2621;DHT22;1320;48.128;11.592;2023-06-10T13:31:05;29.50;81.80
2621;DHT22;1320;48.128;11.592;2023-06-10T13:33:32;29.40;81.70
2621;DHT22;1320;48.128;11.592;2023-06-10T13:35:58;29.40;81.70
2621;DHT22;1320;48.128;11.592;2023-06-10T13:38:24;29.40;81.60
2621;DHT22;1320;48.128;11.592;2023-06-10T13:40:49;29.50;81.60
2621;DHT22;1320;48.128;11.592;2023-06-10T13:43:16;29.80;81.10
2621;DHT22;1320;48.128;11.592;2023-06-10T13:45:42;30.00;80.00
2621;DHT22;1320;48.128;11.592;2023-06-10T13:48:08;30.10;79.40
2621;DHT22;1320;48.128;11.592;2023-06-10T13:50:33;30.30;79.20
2621;DHT22;1320;48.128;11.592;2023-06-10T13:52:59;30.50;77.40
2621;DHT22;1320;48.128;11.592;2023-06-10T13:55:25;30.50;76.90
2621;DHT22;1320;48.128;11.592;2023-06-10T13:57:51;30.60;76.70
2621;DHT22;1320;48.128;11.592;2023-06-10T14:00:17;30.70;76.80
2621;DHT22;1320;48.128;11.592;2023-06-10T14:02:42;30.80;75.20
2621;DHT22;1320;48.128;11.592;2023-06-10T14:05:08;30.80;76.00
2621;DHT22;1320;48.128;11.592;2023-06-10T14:07:34;30.80;76.50
2621;DHT22;1320;48.128;11.592;2023-06-10T14:10:00;30.90;74.60
2621;DHT22;1320;48.128;11.592;2023-06-10T14:12:26;30.90;74.30
2621;DHT22;1320;48.128;11.592;2023-06-10T14:14:51;31.00;73.90
2621;DHT22;1320;48.128;11.592;2023-06-10T14:17:17;31.10;74.30
2621;DHT22;1320;48.128;11.592;2023-06-10T14:19:43;31.30;74.30
2621;DHT22;1320;48.128;11.592;2023-06-10T14:22:08;31.40;74.00
2621;DHT22;1320;48.128;11.592;2023-06-10T14:24:35;31.60;73.50
2621;DHT22;1320;48.128;11.592;2023-06-10T14:27:01;31.70;72.70
2621;DHT22;1320;48.128;11.592;2023-06-10T14:29:27;31.70;73.40
2621;DHT22;1320;48.128;11.592;2023-06-10T14:31:55;31.60;74.60
2621;DHT22;1320;48.128;11.592;2023-06-10T14:34:20;31.70;72.70
2621;DHT22;1320;48.128;11.592;2023-06-10T14:36:48;31.70;72.60
2621;DHT22;1320;48.128;11.592;2023-06-10T14:39:14;31.70;72.80
2621;DHT22;1320;48.128;11.592;2023-06-10T14:41:40;31.70;73.60
2621;DHT22;1320;48.128;11.592;2023-06-10T14:44:05;31.90;72.70
2621;DHT22;1320;48.128;11.592;2023-06-10T14:46:31;32.20;71.10
2621;DHT22;1320;48.128;11.592;2023-06-10T14:48:57;32.30;70.20
2621;DHT22;1320;48.128;11.592;2023-06-10T14:51:24;32.20;69.80
2621;DHT22;1320;48.128;11.592;2023-06-10T14:53:50;32.20;69.30
2621;DHT22;1320;48.128;11.592;2023-06-10T14:56:16;32.30;69.40
2621;DHT22;1320;48.128;11.592;2023-06-10T14:58:41;32.50;70.10
2621;DHT22;1320;48.128;11.592;2023-06-10T15:01:07;32.50;69.20
2621;DHT22;1320;48.128;11.592;2023-06-10T15:03:33;32.50;69.00
2621;DHT22;1320;48.128;11.592;2023-06-10T15:05:58;32.50;69.40
2621;DHT22;1320;48.128;11.592;2023-06-10T15:08:26;32.50;69.90
2621;DHT22;1320;48.128;11.592;2023-06-10T15:10:53;32.50;71.40
2621;DHT22;1320;48.128;11.592;2023-06-10T15:13:19;32.60;71.80
2621;DHT22;1320;48.128;11.592;2023-06-10T15:15:45;32.60;72.80
2621;DHT22;1320;48.128;11.592;2023-06-10T15:18:11;32.50;73.00
2621;DHT22;1320;48.128;11.592;2023-06-10T15:20:37;32.30;73.40
2621;DHT22;1320;48.128;11.592;2023-06-10T15:23:02;32.20;73.80
2621;DHT22;1320;48.128;11.592;2023-06-10T15:25:28;32.10;74.40
2621;DHT22;1320;48.128;11.592;2023-06-10T15:27:54;32.20;73.50
2621;DHT22;1320;48.128;11.592;2023-06-10T15:30:20;32.30;73.30
2621;DHT22;1320;48.128;11.592;2023-06-10T15:32:45;32.40;73.00
2621;DHT22;1320;48.128;11.592;2023-06-10T15:35:11;32.50;72.50
2621;DHT22;1320;48.128;11.592;2023-06-10T15:37:37;32.60;72.10
2621;DHT22;1320;48.128;11.592;2023-06-10T15:40:03;32.70;71.20
2621;DHT22;1320;48.128;11.592;2023-06-10T15:42:29;32.80;69.90
2621;DHT22;1320;48.128;11.592;2023-06-10T15:44:54;32.80;69.30
2621;DHT22;1320;48.128;11.592;2023-06-10T15:47:20;32.70;68.80
2621;DHT22;1320;48.128;11.592;2023-06-10T15:49:46;32.60;68.80
2621;DHT22;1320;48.128;11.592;2023-06-10T15:52:11;32.50;69.00
2621;DHT22;1320;48.128;11.592;2023-06-10T15:54:37;32.50;69.60
2621;DHT22;1320;48.128;11.592;2023-06-10T15:57:03;32.60;70.10
2621;DHT22;1320;48.128;11.592;2023-06-10T15:59:32;32.60;70.60
2621;DHT22;1320;48.128;11.592;2023-06-10T16:01:57;32.30;70.50
2621;DHT22;1320;48.128;11.592;2023-06-10T16:04:23;32.00;71.20
2621;DHT22;1320;48.128;11.592;2023-06-10T16:06:48;31.60;71.80
2621;DHT22;1320;48.128;11.592;2023-06-10T16:09:15;31.20;73.60